createdAt,value
2022-09-22T00:00:59.118Z,102139.38
2022-09-22T00:03:22.758Z,102140.88
2022-09-22T00:05:46.263Z,102132.03
2022-09-22T00:08:09.870Z,102135.38
2022-09-22T00:10:33.389Z,102135.06
2022-09-22T00:12:57.031Z,102132.84
2022-09-22T00:15:20.651Z,102133.78
2022-09-22T00:17:45.980Z,102126.88
2022-09-22T00:20:13.924Z,102129.63
2022-09-22T00:22:37.498Z,102129.19
2022-09-22T00:25:01.306Z,102119.41
2022-09-22T00:27:25.632Z,102119.69
2022-09-22T00:29:50.515Z,102122.31
2022-09-22T00:32:14.546Z,102121.66
2022-09-22T00:34:39.430Z,102119.16
2022-09-22T00:37:02.973Z,102115.06
2022-09-22T00:39:27.602Z,102122.06
2022-09-22T00:41:53.837Z,102122.28
2022-09-22T00:44:38.491Z,102124.50
2022-09-22T00:47:23.611Z,102119.59
2022-09-22T00:49:54.229Z,102119.59
2022-09-22T00:52:23.346Z,102117.94
2022-09-22T00:54:47.203Z,102115.75
2022-09-22T00:57:16.008Z,102113.31
2022-09-22T00:59:40.234Z,102117.78
2022-09-22T01:02:03.888Z,102121.47
2022-09-22T01:04:28.142Z,102119.72
2022-09-22T01:06:54.559Z,102117.38
2022-09-22T01:09:18.908Z,102121.06
2022-09-22T01:11:44.648Z,102118.31
2022-09-22T01:14:18.110Z,102118.59
2022-09-22T01:16:51.687Z,102120.56
2022-09-22T01:19:52.855Z,102115.44
2022-09-22T01:22:40.433Z,102112.84
2022-09-22T01:25:29.605Z,102114.06
2022-09-22T01:28:24.526Z,102116.16
2022-09-22T01:30:53.463Z,102115.31
2022-09-22T01:33:32.127Z,102115.81
2022-09-22T01:36:22.787Z,102109.50
2022-09-22T01:38:57.623Z,102115.97
2022-09-22T01:41:40.062Z,102109.81
2022-09-22T01:44:07.549Z,102106.38
2022-09-22T01:46:37.912Z,102110.25
2022-09-22T01:49:08.650Z,102108.44
2022-09-22T01:51:36.321Z,102107.63
2022-09-22T01:54:05.964Z,102110.47
2022-09-22T01:56:32.615Z,102115.88
2022-09-22T01:59:01.287Z,102109.97
2022-09-22T02:01:29.845Z,102105.03
2022-09-22T02:04:01.377Z,102100.50
2022-09-22T02:06:29.641Z,102105.13
2022-09-22T02:08:57.867Z,102102.44
2022-09-22T02:11:22.931Z,102095.25
2022-09-22T02:13:47.803Z,102109.94
2022-09-22T02:16:12.753Z,102106.53
2022-09-22T02:18:45.037Z,102099.53
2022-09-22T02:21:10.758Z,102112.94
2022-09-22T02:23:35.367Z,102105.28
2022-09-22T02:25:59.699Z,102110.41
2022-09-22T02:28:25.276Z,102108.06
2022-09-22T02:31:17.633Z,102118.28
2022-09-22T02:33:40.466Z,102123.53
2022-09-22T02:36:18.918Z,102113.53
2022-09-22T02:38:51.462Z,102119.38
2022-09-22T02:41:25.271Z,102114.22
2022-09-22T02:43:55.142Z,102115.34
2022-09-22T02:46:26.632Z,102112.75
2022-09-22T02:48:54.322Z,102101.91
2022-09-22T02:51:20.172Z,102118.41
2022-09-22T02:53:43.755Z,102113.22
2022-09-22T02:56:07.678Z,102105.25
2022-09-22T02:58:31.237Z,102110.47
2022-09-22T03:00:54.763Z,102111.78
2022-09-22T03:03:18.318Z,102108.31
2022-09-22T03:05:42.118Z,102110.25
2022-09-22T03:08:07.921Z,102105.63
2022-09-22T03:10:31.529Z,102103.97
2022-09-22T03:13:15.631Z,102111.41
2022-09-22T03:15:38.757Z,102106.91
2022-09-22T03:18:02.365Z,102104.31
2022-09-22T03:20:25.948Z,102102.97
2022-09-22T03:22:49.635Z,102101.94
2022-09-22T03:25:14.666Z,102099.44
2022-09-22T03:27:38.395Z,102106.50
2022-09-22T03:30:04.079Z,102101.22
2022-09-22T03:32:27.730Z,102096.84
2022-09-22T03:34:51.610Z,102107.69
2022-09-22T03:37:15.194Z,102107.69
2022-09-22T03:39:38.836Z,102102.47
2022-09-22T03:42:03.767Z,102109.13
2022-09-22T03:44:27.686Z,102102.81
2022-09-22T03:46:51.214Z,102101.94
2022-09-22T03:49:14.887Z,102106.44
2022-09-22T03:51:38.696Z,102101.19
2022-09-22T03:54:02.495Z,102097.16
2022-09-22T03:56:26.023Z,102094.47
2022-09-22T03:58:51.065Z,102094.25
2022-09-22T04:01:14.693Z,102098.31
2022-09-22T04:03:38.895Z,102094.69
2022-09-22T04:06:02.862Z,102091.47
2022-09-22T04:08:26.469Z,102096.53
2022-09-22T04:10:50.251Z,102089.56
2022-09-22T04:13:14.599Z,102082.81
2022-09-22T04:15:39.546Z,102085.25
2022-09-22T04:18:03.090Z,102080.84
2022-09-22T04:20:27.627Z,102088.84
2022-09-22T04:22:51.198Z,102085.41
2022-09-22T04:25:14.703Z,102087.22
2022-09-22T04:27:38.314Z,102086.25
2022-09-22T04:30:01.949Z,102084.75
2022-09-22T04:32:26.935Z,102089.34
2022-09-22T04:34:51.115Z,102092.94
2022-09-22T04:37:14.762Z,102083.06
2022-09-22T04:39:38.606Z,102086.78
2022-09-22T04:42:02.170Z,102086.66
2022-09-22T04:44:25.755Z,102094.28
2022-09-22T04:46:50.290Z,102088.03
2022-09-22T04:49:15.626Z,102092.31
2022-09-22T04:51:39.263Z,102092.25
2022-09-22T04:54:02.984Z,102097.13
2022-09-22T04:56:26.603Z,102102.44
2022-09-22T04:58:50.125Z,102094.53
2022-09-22T05:01:13.789Z,102099.00
2022-09-22T05:03:39.099Z,102094.59
2022-09-22T05:06:04.085Z,102093.53
2022-09-22T05:08:27.593Z,102095.63
2022-09-22T05:10:51.268Z,102096.94
2022-09-22T05:13:15.482Z,102098.84
2022-09-22T05:15:39.067Z,102094.41
2022-09-22T05:18:02.642Z,102099.84
2022-09-22T05:20:26.243Z,102097.00
2022-09-22T05:22:51.281Z,102104.44
2022-09-22T05:25:17.645Z,102105.81
2022-09-22T05:27:45.687Z,102102.34
2022-09-22T05:30:10.729Z,102104.19
2022-09-22T05:32:34.250Z,102103.44
2022-09-22T05:34:58.022Z,102103.50
2022-09-22T05:37:21.555Z,102100.78
2022-09-22T05:39:46.496Z,102110.59
2022-09-22T05:42:11.157Z,102111.75
2022-09-22T05:44:34.850Z,102112.50
2022-09-22T05:46:59.014Z,102110.41
2022-09-22T05:49:22.570Z,102109.72
2022-09-22T05:51:46.739Z,102115.81
2022-09-22T05:54:11.040Z,102107.19
2022-09-22T05:56:35.939Z,102113.41
2022-09-22T05:58:59.682Z,102112.84
2022-09-22T06:01:23.253Z,102113.00
2022-09-22T06:03:46.874Z,102113.00
2022-09-22T06:06:10.369Z,102114.94
2022-09-22T06:08:33.961Z,102111.75
2022-09-22T06:10:57.492Z,102110.47
2022-09-22T06:13:22.470Z,102115.44
2022-09-22T06:15:48.714Z,102117.09
2022-09-22T06:18:15.264Z,102115.31
2022-09-22T06:20:39.222Z,102110.69
2022-09-22T06:23:02.934Z,102120.53
2022-09-22T06:25:28.138Z,102121.13
2022-09-22T06:28:01.961Z,102118.78
2022-09-22T06:30:26.988Z,102130.69
2022-09-22T06:32:55.599Z,102114.78
2022-09-22T06:35:19.281Z,102126.22
2022-09-22T06:37:43.025Z,102127.06
2022-09-22T06:40:11.885Z,102121.91
2022-09-22T06:42:37.747Z,102123.03
2022-09-22T06:45:02.362Z,102124.38
2022-09-22T06:47:27.893Z,102128.56
2022-09-22T06:49:51.496Z,102117.75
2022-09-22T06:52:15.211Z,102121.06
2022-09-22T06:54:39.909Z,102116.81
2022-09-22T06:57:03.907Z,102116.19
2022-09-22T06:59:27.630Z,102115.16
2022-09-22T07:01:51.301Z,102120.19
2022-09-22T07:04:16.817Z,102117.44
2022-09-22T07:06:41.184Z,102119.28
2022-09-22T07:09:06.150Z,102118.75
2022-09-22T07:11:30.308Z,102116.84
2022-09-22T07:13:55.490Z,102121.88
2022-09-22T07:16:21.160Z,102115.69
2022-09-22T07:18:47.350Z,102116.66
2022-09-22T07:21:15.668Z,102114.53
2022-09-22T07:23:40.884Z,102113.97
2022-09-22T07:26:05.851Z,102114.75
2022-09-22T07:28:29.559Z,102120.44
2022-09-22T07:30:53.087Z,102116.66
2022-09-22T07:33:17.558Z,102111.78
2022-09-22T07:35:41.195Z,102112.81
2022-09-22T07:38:06.137Z,102117.09
2022-09-22T07:40:29.715Z,102112.34
2022-09-22T07:42:53.373Z,102110.28
2022-09-22T07:45:17.123Z,102105.34
2022-09-22T07:47:57.828Z,102115.25
2022-09-22T07:50:21.403Z,102116.97
2022-09-22T07:52:51.869Z,102117.09
2022-09-22T07:55:17.060Z,102117.50
2022-09-22T07:57:40.543Z,102108.63
2022-09-22T08:00:04.596Z,102108.50
2022-09-22T08:02:35.488Z,102110.38
2022-09-22T08:05:04.161Z,102115.06
2022-09-22T08:07:30.023Z,102120.06
2022-09-22T08:09:53.692Z,102120.34
2022-09-22T08:12:18.677Z,102118.28
2022-09-22T08:14:42.588Z,102126.19
2022-09-22T08:17:07.563Z,102127.38
2022-09-22T08:19:33.903Z,102125.13
2022-09-22T08:21:57.759Z,102125.13
2022-09-22T08:24:22.901Z,102117.66
2022-09-22T08:26:48.388Z,102129.22
2022-09-22T08:29:13.579Z,102126.31
2022-09-22T08:31:41.252Z,102125.16
2022-09-22T08:34:06.218Z,102130.06
2022-09-22T08:36:29.991Z,102125.81
2022-09-22T08:38:53.817Z,102124.88
2022-09-22T08:41:27.660Z,102123.75
2022-09-22T08:43:55.602Z,102129.53
2022-09-22T08:46:20.656Z,102127.50
2022-09-22T08:49:05.552Z,102129.97
2022-09-22T08:51:55.548Z,102126.81
2022-09-22T08:54:19.483Z,102127.78
2022-09-22T08:56:48.226Z,102122.75
2022-09-22T08:59:20.166Z,102130.94
2022-09-22T09:02:29.364Z,102125.44
2022-09-22T09:05:48.912Z,102117.72
2022-09-22T09:08:30.969Z,102117.44
2022-09-22T09:10:57.065Z,102117.91
2022-09-22T09:13:38.438Z,102112.81
2022-09-22T09:16:25.956Z,102115.56
2022-09-22T09:18:57.720Z,102109.25
2022-09-22T09:21:22.809Z,102114.22
2022-09-22T09:26:36.320Z,102108.00
2022-09-22T09:29:04.019Z,102099.69
2022-09-22T09:31:37.434Z,102105.09
2022-09-22T09:34:06.266Z,102112.56
2022-09-22T09:36:34.028Z,102107.81
2022-09-22T09:39:00.220Z,102108.84
2022-09-22T09:41:28.214Z,102108.44
2022-09-22T09:43:54.423Z,102115.28
2022-09-22T09:46:33.079Z,102097.38
2022-09-22T09:49:14.445Z,102099.78
2022-09-22T09:51:40.934Z,102101.97
2022-09-22T09:54:06.428Z,102097.47
2022-09-22T09:56:31.994Z,102098.97
2022-09-22T09:59:18.143Z,102094.94
2022-09-22T10:01:44.217Z,102101.09
2022-09-22T10:04:17.735Z,102096.66
2022-09-22T10:06:41.565Z,102092.06
2022-09-22T10:09:06.280Z,102087.28
2022-09-22T10:11:32.474Z,102090.66
2022-09-22T10:13:58.541Z,102086.34
2022-09-22T10:16:24.352Z,102089.78
2022-09-22T10:18:49.110Z,102091.72
2022-09-22T10:21:18.354Z,102089.22
2022-09-22T10:23:43.270Z,102082.66
2022-09-22T10:26:20.867Z,102089.38
2022-09-22T10:28:44.671Z,102085.22
2022-09-22T10:31:09.903Z,102086.34
2022-09-22T10:33:34.967Z,102074.88
2022-09-22T10:36:11.025Z,102084.56
2022-09-22T10:38:40.980Z,102082.78
2022-09-22T10:41:08.960Z,102085.16
2022-09-22T10:43:45.734Z,102081.22
2022-09-22T10:46:32.559Z,102079.44
2022-09-22T10:49:00.676Z,102080.19
2022-09-22T10:51:38.107Z,102078.97
2022-09-22T10:54:26.339Z,102080.28
2022-09-22T10:56:54.621Z,102086.28
2022-09-22T10:59:49.586Z,102085.50
2022-09-22T11:02:45.378Z,102081.69
2022-09-22T11:05:44.079Z,102074.34
2022-09-22T11:08:30.254Z,102080.47
2022-09-22T11:11:23.055Z,102072.63
2022-09-22T11:14:06.444Z,102066.50
2022-09-22T11:17:05.101Z,102062.78
2022-09-22T11:20:01.813Z,102063.88
2022-09-22T11:22:48.786Z,102065.69
2022-09-22T11:25:30.014Z,102058.63
2022-09-22T11:28:09.200Z,102054.25
2022-09-22T11:30:36.465Z,102058.25
2022-09-22T11:33:43.712Z,102049.28
2022-09-22T11:36:22.454Z,102044.59
2022-09-22T11:39:07.176Z,102048.91
2022-09-22T11:41:39.264Z,102039.47
2022-09-22T11:44:34.386Z,102041.09
2022-09-22T11:47:31.360Z,102035.44
2022-09-22T11:50:46.915Z,102029.41
2022-09-22T11:53:35.036Z,102029.75
2022-09-22T11:56:21.587Z,102035.91
2022-09-22T11:58:47.475Z,102030.22
2022-09-22T12:01:16.541Z,102019.97
2022-09-22T12:03:47.629Z,102018.97
2022-09-22T12:06:16.527Z,102018.50
2022-09-22T12:08:49.396Z,102019.41
2022-09-22T12:11:16.767Z,102016.59
2022-09-22T12:13:47.250Z,102006.03
2022-09-22T12:16:20.285Z,102005.00
2022-09-22T12:18:51.243Z,102002.88
2022-09-22T12:21:32.989Z,101992.25
2022-09-22T12:23:57.211Z,101998.41
2022-09-22T12:26:29.673Z,101990.72
2022-09-22T12:28:53.426Z,101983.34
2022-09-22T12:31:21.136Z,101986.91
2022-09-22T12:33:51.529Z,101989.69
2022-09-22T12:36:17.169Z,101984.97
2022-09-22T12:38:41.114Z,101987.00
2022-09-22T12:41:05.234Z,101986.69
2022-09-22T12:43:29.922Z,101990.91
2022-09-22T12:45:55.173Z,101982.66
2022-09-22T12:48:25.039Z,101979.13
2022-09-22T12:50:48.677Z,101979.47
2022-09-22T12:53:26.033Z,101978.56
2022-09-22T12:55:50.162Z,101981.16
2022-09-22T12:58:43.608Z,101976.44
2022-09-22T13:01:35.604Z,101978.28
2022-09-22T13:04:18.974Z,101975.59
2022-09-22T13:06:56.311Z,101966.59
2022-09-22T13:09:25.516Z,101970.78
2022-09-22T13:12:28.166Z,101972.03
2022-09-22T13:15:21.230Z,101972.13
2022-09-22T13:17:47.784Z,101973.22
2022-09-22T13:20:23.334Z,101965.66
2022-09-22T13:22:47.207Z,101966.59
2022-09-22T13:25:28.606Z,101973.59
2022-09-22T13:28:13.249Z,101969.50
2022-09-22T13:30:37.676Z,101959.63
2022-09-22T13:33:01.358Z,101965.47
2022-09-22T13:35:31.957Z,101967.28
2022-09-22T13:37:57.955Z,101956.56
2022-09-22T13:40:22.262Z,101944.31
2022-09-22T13:42:46.696Z,101948.22
2022-09-22T13:45:19.117Z,101951.19
2022-09-22T13:47:44.926Z,101943.41
2022-09-22T13:50:15.160Z,101939.19
2022-09-22T13:52:42.315Z,101938.84
2022-09-22T13:55:11.341Z,101932.88
2022-09-22T13:57:38.495Z,101925.34
2022-09-22T14:00:03.888Z,101925.16
2022-09-22T14:02:32.435Z,101924.78
2022-09-22T14:04:59.066Z,101922.31
2022-09-22T14:07:24.923Z,101917.91
2022-09-22T14:09:51.235Z,101917.56
2022-09-22T14:12:15.582Z,101927.19
2022-09-22T14:14:40.374Z,101918.50
2022-09-22T14:17:07.030Z,101916.34
2022-09-22T14:19:35.762Z,101911.88
2022-09-22T14:22:01.535Z,101903.94
2022-09-22T14:24:25.506Z,101917.44
2022-09-22T14:26:52.718Z,101914.31
2022-09-22T14:29:21.320Z,101903.97
2022-09-22T14:31:48.321Z,101906.88
2022-09-22T14:34:18.167Z,101915.72
2022-09-22T14:36:47.903Z,101909.47
2022-09-22T14:39:20.255Z,101907.06
2022-09-22T14:41:55.214Z,101904.81
2022-09-22T14:44:44.673Z,101904.50
2022-09-22T14:47:27.490Z,101902.47
2022-09-22T14:49:51.457Z,101911.75
2022-09-22T14:52:27.091Z,101899.91
2022-09-22T14:54:51.903Z,101904.91
2022-09-22T14:57:17.962Z,101901.09
2022-09-22T15:00:07.557Z,101895.44
2022-09-22T15:02:34.012Z,101909.72
2022-09-22T15:04:57.639Z,101903.47
2022-09-22T15:07:26.010Z,101896.41
2022-09-22T15:09:55.514Z,101902.56
2022-09-22T15:12:40.403Z,101899.41
2022-09-22T15:15:04.815Z,101896.69
2022-09-22T15:17:58.756Z,101892.84
2022-09-22T15:20:22.519Z,101904.31
2022-09-22T15:22:46.372Z,101895.31
2022-09-22T15:25:15.196Z,101895.59
2022-09-22T15:27:42.947Z,101899.44
2022-09-22T15:30:15.868Z,101895.75
2022-09-22T15:32:44.687Z,101896.59
2022-09-22T15:35:10.388Z,101888.59
2022-09-22T15:37:39.008Z,101891.41
2022-09-22T15:40:03.110Z,101898.00
2022-09-22T15:42:28.080Z,101901.69
2022-09-22T15:44:53.223Z,101897.22
2022-09-22T15:47:17.248Z,101889.03
2022-09-22T15:49:41.257Z,101895.41
2022-09-22T15:52:04.995Z,101897.22
2022-09-22T15:54:29.601Z,101885.75
2022-09-22T15:56:55.558Z,101887.69
2022-09-22T15:59:21.871Z,101889.06
2022-09-22T16:01:46.815Z,101894.44
2022-09-22T16:04:10.445Z,101891.41
2022-09-22T16:06:34.258Z,101888.31
2022-09-22T16:08:58.545Z,101881.97
2022-09-22T16:11:28.355Z,101887.19
2022-09-22T16:13:51.965Z,101880.94
2022-09-22T16:16:18.284Z,101884.56
2022-09-22T16:18:43.926Z,101877.72
2022-09-22T16:21:10.315Z,101877.50
2022-09-22T16:23:34.251Z,101880.63
2022-09-22T16:25:57.814Z,101884.69
2022-09-22T16:28:21.371Z,101876.50
2022-09-22T16:30:44.914Z,101876.16
2022-09-22T16:33:08.458Z,101873.44
2022-09-22T16:35:33.367Z,101882.28
2022-09-22T16:37:58.092Z,101873.84
2022-09-22T16:40:22.494Z,101884.47
2022-09-22T16:42:46.049Z,101880.94
2022-09-22T16:45:10.582Z,101878.94
2022-09-22T16:47:34.171Z,101879.00
2022-09-22T16:49:57.972Z,101883.44
2022-09-22T16:52:24.071Z,101885.16
2022-09-22T16:54:47.783Z,101880.44
2022-09-22T16:57:11.471Z,101893.19
2022-09-22T16:59:35.035Z,101882.38
2022-09-22T17:01:58.600Z,101881.97
2022-09-22T17:04:22.357Z,101886.63
2022-09-22T17:06:46.562Z,101883.63
2022-09-22T17:09:13.017Z,101880.06
2022-09-22T17:11:39.242Z,101895.41
2022-09-22T17:14:08.869Z,101889.00
2022-09-22T17:16:37.640Z,101894.09
2022-09-22T17:19:03.813Z,101886.66
2022-09-22T17:21:31.208Z,101882.16
2022-09-22T17:24:00.563Z,101880.13
2022-09-22T17:26:25.495Z,101881.66
2022-09-22T17:28:53.259Z,101881.78
2022-09-22T17:31:16.924Z,101876.19
2022-09-22T17:33:46.982Z,101884.50
2022-09-22T17:36:19.554Z,101887.41
2022-09-22T17:38:43.071Z,101885.25
2022-09-22T17:41:08.442Z,101885.88
2022-09-22T17:43:33.495Z,101881.69
2022-09-22T17:45:57.006Z,101872.31
2022-09-22T17:48:37.890Z,101874.69
2022-09-22T17:51:18.610Z,101878.97
2022-09-22T17:53:59.356Z,101868.63
2022-09-22T17:56:23.007Z,101875.06
2022-09-22T17:58:47.890Z,101876.47
2022-09-22T18:01:11.480Z,101875.16
2022-09-22T18:03:35.064Z,101874.69
2022-09-22T18:05:59.187Z,101873.16
2022-09-22T18:08:22.759Z,101872.28
2022-09-22T18:10:46.361Z,101869.53
2022-09-22T18:13:10.222Z,101876.59
2022-09-22T18:15:36.575Z,101879.38
2022-09-22T18:18:00.195Z,101880.56
2022-09-22T18:20:23.746Z,101878.66
2022-09-22T18:22:49.221Z,101881.63
2022-09-22T18:25:13.071Z,101877.84
2022-09-22T18:27:37.314Z,101875.91
2022-09-22T18:30:00.974Z,101876.78
2022-09-22T18:32:27.195Z,101880.63
2022-09-22T18:34:51.239Z,101882.25
2022-09-22T18:37:15.834Z,101877.94
2022-09-22T18:39:40.769Z,101867.22
2022-09-22T18:42:04.979Z,101884.78
2022-09-22T18:44:29.280Z,101880.19
2022-09-22T18:46:53.995Z,101880.47
2022-09-22T18:49:19.408Z,101880.09
2022-09-22T18:51:49.229Z,101885.25
2022-09-22T18:54:15.512Z,101887.06
2022-09-22T18:56:41.183Z,101880.47
2022-09-22T18:59:06.242Z,101880.47
2022-09-22T19:01:34.407Z,101880.63
2022-09-22T19:03:58.336Z,101885.03
2022-09-22T19:06:23.286Z,101875.66
2022-09-22T19:08:46.883Z,101879.66
2022-09-22T19:11:11.145Z,101882.31
2022-09-22T19:13:35.837Z,101887.47
2022-09-22T19:15:59.647Z,101882.84
2022-09-22T19:18:23.230Z,101884.59
2022-09-22T19:20:46.749Z,101881.28
2022-09-22T19:23:11.731Z,101887.03
2022-09-22T19:25:35.450Z,101890.09
2022-09-22T19:28:00.119Z,101881.00
2022-09-22T19:30:27.488Z,101883.06
2022-09-22T19:32:54.659Z,101884.63
2022-09-22T19:35:18.459Z,101889.22
2022-09-22T19:37:42.380Z,101890.34
2022-09-22T19:40:09.202Z,101893.19
2022-09-22T19:42:35.917Z,101891.31
2022-09-22T19:45:03.024Z,101893.31
2022-09-22T19:47:26.651Z,101888.56
2022-09-22T19:49:50.225Z,101892.53
2022-09-22T19:52:14.760Z,101891.75
2022-09-22T19:54:38.390Z,101888.38
2022-09-22T19:57:03.636Z,101888.03
2022-09-22T19:59:27.434Z,101892.81
2022-09-22T20:01:51.120Z,101887.78
2022-09-22T20:04:18.543Z,101894.50
2022-09-22T20:06:42.165Z,101875.84
2022-09-22T20:09:05.886Z,101881.56
2022-09-22T20:11:33.419Z,101883.69
2022-09-22T20:14:27.366Z,101882.25
2022-09-22T20:16:53.428Z,101880.59
2022-09-22T20:19:17.514Z,101884.25
2022-09-22T20:21:42.378Z,101876.34
2022-09-22T20:24:07.098Z,101873.84
2022-09-22T20:26:31.068Z,101873.81
2022-09-22T20:28:56.478Z,101873.56
2022-09-22T20:31:21.632Z,101871.84
2022-09-22T20:33:45.328Z,101879.28
2022-09-22T20:36:13.709Z,101869.59
2022-09-22T20:38:38.482Z,101874.41
2022-09-22T20:41:02.990Z,101874.25
2022-09-22T20:43:28.928Z,101874.56
2022-09-22T20:45:52.517Z,101870.34
2022-09-22T20:48:18.898Z,101875.84
2022-09-22T20:50:42.554Z,101874.19
2022-09-22T20:53:06.157Z,101870.81
2022-09-22T20:55:29.741Z,101870.59
2022-09-22T20:57:53.410Z,101869.59
2022-09-22T21:00:17.315Z,101860.88
2022-09-22T21:02:41.110Z,101857.31
2022-09-22T21:05:06.845Z,101865.28
2022-09-22T21:07:32.381Z,101867.56
2022-09-22T21:10:13.310Z,101869.75
2022-09-22T21:12:37.083Z,101878.25
2022-09-22T21:15:00.977Z,101876.69
2022-09-22T21:17:25.379Z,101862.66
2022-09-22T21:19:48.995Z,101874.81
2022-09-22T21:22:14.030Z,101865.63
2022-09-22T21:24:37.708Z,101868.66
2022-09-22T21:27:01.333Z,101874.47
2022-09-22T21:29:24.888Z,101871.75
2022-09-22T21:31:49.780Z,101875.38
2022-09-22T21:34:13.480Z,101880.78
2022-09-22T21:36:37.083Z,101882.38
2022-09-22T21:39:02.419Z,101878.97
2022-09-22T21:41:28.635Z,101875.25
2022-09-22T21:43:52.703Z,101868.03
2022-09-22T21:46:18.888Z,101870.00
2022-09-22T21:48:43.144Z,101868.25
2022-09-22T21:51:09.811Z,101871.16
2022-09-22T21:53:35.153Z,101866.84
2022-09-22T21:56:03.260Z,101864.03
2022-09-22T21:58:28.003Z,101864.16
2022-09-22T22:00:53.024Z,101875.97
2022-09-22T22:03:31.705Z,101868.19
2022-09-22T22:06:02.814Z,101862.88
2022-09-22T22:08:26.437Z,101869.25
2022-09-22T22:10:50.113Z,101866.34
2022-09-22T22:13:15.866Z,101862.66
2022-09-22T22:15:40.537Z,101861.41
2022-09-22T22:18:04.266Z,101865.31
2022-09-22T22:20:27.938Z,101868.84
2022-09-22T22:22:51.574Z,101867.69
2022-09-22T22:25:17.372Z,101861.22
2022-09-22T22:27:41.048Z,101870.19
2022-09-22T22:30:07.267Z,101864.09
2022-09-22T22:32:30.982Z,101868.31
2022-09-22T22:34:54.588Z,101864.88
2022-09-22T22:37:18.151Z,101864.66
2022-09-22T22:39:41.710Z,101853.69
2022-09-22T22:42:06.152Z,101859.81
2022-09-22T22:44:29.864Z,101854.69
2022-09-22T22:46:55.009Z,101859.03
2022-09-22T22:49:18.551Z,101852.97
2022-09-22T22:51:43.994Z,101858.38
2022-09-22T22:54:08.290Z,101855.16
2022-09-22T22:56:32.100Z,101848.88
2022-09-22T22:58:55.899Z,101860.31
2022-09-22T23:01:22.171Z,101850.88
2022-09-22T23:03:49.951Z,101842.81
2022-09-22T23:06:19.006Z,101857.53
2022-09-22T23:08:43.774Z,101859.50
2022-09-22T23:11:11.459Z,101853.22
2022-09-22T23:13:35.421Z,101855.09
2022-09-22T23:16:08.095Z,101850.88
2022-09-22T23:18:35.305Z,101853.56
2022-09-22T23:21:00.392Z,101847.50
2022-09-22T23:23:24.050Z,101843.25
2022-09-22T23:25:50.339Z,101848.31
2022-09-22T23:28:14.015Z,101842.38
2022-09-22T23:30:37.583Z,101834.44
2022-09-22T23:33:01.301Z,101837.13
2022-09-22T23:35:25.012Z,101825.13
2022-09-22T23:37:50.915Z,101830.34
2022-09-22T23:40:14.544Z,101827.06
2022-09-22T23:42:38.198Z,101818.84
2022-09-22T23:45:01.728Z,101820.25
2022-09-22T23:47:25.366Z,101825.72
2022-09-22T23:49:49.052Z,101823.47
2022-09-22T23:52:12.726Z,101815.03
2022-09-22T23:54:37.631Z,101813.31
2022-09-22T23:57:01.530Z,101817.06
2022-09-22T23:59:25.130Z,101811.56
